Adelma Beach, Washington
Current Conditions -  °F | °C
As of 3:56 AM on Tuesday 27 Jan 2015 (Local Time) from KNUW Reporting Station
Broken Clouds Broken Clouds  
Wind Chill: 50°   Ceiling: 2600
Heat Index: 50°   Visibility: 10mi
Dew Point: 46°   Wind: 3mph
Humidity: 86%   Direction: 140°SE
Pressure: 29.98"   Gusts: NA
Location:  48.026°N, 122.859°W
Report Text: KNUW 271156Z 14003KT 10SM SCT010 SCT017 BKN026 10/08 A2998 RMK AO2 SLP155 T01000078 10100 20061 50003 VISNO E $
Loading
Personal Weather Stations






























Interactive Weather Map New forecast layout! Learn more

10-Day Weather Forecast

Advertisements
Track Severe Weather on mobile